Broderick, California
Current Conditions -  °F | °C
As of 12:53 PM on Monday 24 Nov 2014 (Local Time) from KSAC Reporting Station
Clear Clear  
Wind Chill: 60°   Ceiling: Unl
Heat Index: 60°   Visibility: 10mi
Dew Point: 44°   Wind: 5mph
Humidity: 55%   Direction: 260°W
Pressure: 30.37"   Gusts: NA
Location:  38.5921°N, 121.545°W
Report Text: KSAC 242053Z 26004KT 10SM CLR 16/07 A3037 RMK AO2 SLP283 T01560067 58014
Loading
Personal Weather Stations






























Interactive Weather Map New forecast layout! Learn more

10-Day Weather Forecast

Advertisements
Track Severe Weather on mobile